Time;durP1;ratioP1;P1;durP2;ratioP2;P2;SDS_P1;SDS_P2;PMS_P1;PMS_P2;Temp;Humidity;BMP_temperature;BMP_pressure;BME280_temperature;BME280_humidity;BME280_pressure;Samples;Min_cycle;Max_cycle;Signal;HPM_P1;HPM_P2
2021/03/10 00:00:04;;;;;;;2.87;1.80;;;;;;;0.58;64.74;101785.08;1824485;78;21495;-51
2021/03/10 00:02:34;;;;;;;3.80;1.80;;;;;;;0.58;64.96;101789.04;1823751;78;21159;-52
2021/03/10 00:05:05;;;;;;;3.70;1.80;;;;;;;0.56;64.83;101794.30;1824277;78;21126;-52
2021/03/10 00:07:33;;;;;;;3.20;1.90;;;;;;;0.59;64.38;101788.63;1824361;78;21317;-53
2021/03/10 00:10:11;;;;;;;4.72;1.77;;;;;;;0.58;64.34;101795.64;1779704;78;21099;-52
2021/03/10 00:12:39;;;;;;;3.83;2.05;;;;;;;0.59;64.21;101789.50;1824332;78;21111;-52
2021/03/10 00:15:10;;;;;;;3.72;1.80;;;;;;;0.60;64.16;101793.92;1828136;77;21126;-52
2021/03/10 00:17:38;;;;;;;3.70;1.60;;;;;;;0.61;63.47;101786.91;1830543;78;21177;-52
2021/03/10 00:20:07;;;;;;;6.83;2.12;;;;;;;0.60;62.96;101795.69;1830467;78;22260;-51
2021/03/10 00:22:35;;;;;;;3.35;1.60;;;;;;;0.60;62.81;101793.05;1830375;78;21161;-51
2021/03/10 00:25:05;;;;;;;4.35;1.95;;;;;;;0.63;62.73;101803.67;1814608;78;21059;-51
2021/03/10 00:27:33;;;;;;;2.75;1.75;;;;;;;0.62;62.88;101792.66;1830397;78;20939;-51
2021/03/10 00:30:05;;;;;;;3.85;1.67;;;;;;;0.62;63.10;101794.84;1830485;78;21472;-53
2021/03/10 00:32:32;;;;;;;3.02;1.60;;;;;;;0.61;62.90;101784.27;1830412;77;21413;-52
2021/03/10 00:35:02;;;;;;;3.20;1.72;;;;;;;0.61;63.00;101785.59;1830360;78;21066;-52
2021/03/10 00:37:30;;;;;;;4.35;1.70;;;;;;;0.63;62.91;101790.48;1830398;78;21031;-51
2021/03/10 00:39:58;;;;;;;6.00;2.00;;;;;;;0.64;63.19;101777.73;1830411;78;20987;-51
2021/03/10 00:42:25;;;;;;;8.60;2.12;;;;;;;0.66;63.46;101777.34;1830355;78;21138;-51
2021/03/10 00:44:53;;;;;;;2.45;1.42;;;;;;;0.66;63.49;101776.02;1830507;78;21771;-52
2021/03/10 00:47:21;;;;;;;4.65;1.60;;;;;;;0.67;63.67;101777.80;1830406;78;21070;-52
2021/03/10 00:49:49;;;;;;;5.40;1.52;;;;;;;0.67;63.45;101773.84;1830500;78;21173;-51
2021/03/10 00:52:17;;;;;;;4.30;1.82;;;;;;;0.66;63.50;101761.50;1830338;78;21111;-51
2021/03/10 00:54:44;;;;;;;2.98;1.67;;;;;;;0.64;62.92;101761.45;1830421;77;21111;-51
2021/03/10 00:57:12;;;;;;;2.95;1.50;;;;;;;0.64;62.80;101763.22;1830396;78;21693;-51
2021/03/10 00:59:39;;;;;;;6.80;1.60;;;;;;;0.62;62.71;101762.30;1830260;78;21114;-51
2021/03/10 01:02:07;;;;;;;3.22;1.45;;;;;;;0.60;62.68;101753.45;1830415;78;21134;-51
2021/03/10 01:04:35;;;;;;;6.15;1.92;;;;;;;0.56;63.02;101754.72;1830352;78;21122;-52
2021/03/10 01:07:02;;;;;;;5.00;1.87;;;;;;;0.52;63.41;101751.52;1830382;78;21035;-52
2021/03/10 01:09:30;;;;;;;4.72;1.85;;;;;;;0.51;63.11;101750.18;1830360;78;21680;-51
2021/03/10 01:11:58;;;;;;;1.70;1.27;;;;;;;0.47;62.95;101749.20;1830262;78;21114;-51
2021/03/10 01:14:25;;;;;;;5.65;1.90;;;;;;;0.45;62.60;101755.33;1830328;77;21074;-50
2021/03/10 01:16:53;;;;;;;4.70;1.60;;;;;;;0.43;62.60;101746.91;1830415;78;21043;-51
2021/03/10 01:19:21;;;;;;;2.33;1.52;;;;;;;0.41;62.88;101750.39;1830391;78;21047;-52
2021/03/10 01:21:48;;;;;;;3.67;1.40;;;;;;;0.40;62.62;101745.97;1830345;78;21690;-52
2021/03/10 01:24:16;;;;;;;5.15;1.90;;;;;;;0.39;62.24;101755.63;1830325;78;21094;-52
2021/03/10 01:26:44;;;;;;;3.45;1.52;;;;;;;0.37;62.19;101756.46;1830444;77;21058;-51
2021/03/10 01:29:12;;;;;;;5.90;1.72;;;;;;;0.35;62.52;101755.53;1830280;77;21054;-50
2021/03/10 01:31:40;;;;;;;4.00;1.67;;;;;;;0.35;62.17;101768.73;1830338;78;21026;-51
2021/03/10 01:34:08;;;;;;;6.03;1.72;;;;;;;0.34;62.09;101755.08;1830337;78;21700;-51
2021/03/10 01:36:35;;;;;;;3.52;2.00;;;;;;;0.34;61.76;101760.35;1830264;78;21042;-51
2021/03/10 01:39:05;;;;;;;4.75;1.87;;;;;;;0.35;61.63;101766.09;1830440;78;21035;-51
2021/03/10 01:41:32;;;;;;;6.15;2.17;;;;;;;0.35;61.65;101773.56;1830361;78;21051;-52
2021/03/10 01:44:01;;;;;;;3.30;1.85;;;;;;;0.36;61.25;101761.28;1830884;78;21028;-50
2021/03/10 01:46:40;;;;;;;14.50;2.77;;;;;;;0.36;60.86;101771.83;1832055;78;21194;-51
2021/03/10 01:49:08;;;;;;;2.75;1.95;;;;;;;0.35;60.84;101768.73;1832080;78;21107;-50
2021/03/10 01:51:37;;;;;;;5.15;1.95;;;;;;;0.34;61.11;101773.09;1832108;78;21535;-52
2021/03/10 01:54:05;;;;;;;5.62;2.25;;;;;;;0.33;61.10;101779.23;1832057;78;21036;-51
2021/03/10 01:56:32;;;;;;;3.90;1.72;;;;;;;0.34;60.59;101778.82;1832177;78;21043;-51
2021/03/10 01:59:00;;;;;;;4.20;2.05;;;;;;;0.32;60.28;101776.55;1832059;78;21246;-51
2021/03/10 02:01:28;;;;;;;3.77;1.85;;;;;;;0.30;60.75;101780.89;1832003;78;21155;-51
2021/03/10 02:03:55;;;;;;;3.25;1.60;;;;;;;0.28;61.09;101773.83;1832039;78;21137;-52
2021/03/10 02:06:42;;;;;;;3.60;1.92;;;;;;;0.27;61.37;101781.29;1831123;78;21159;-51
2021/03/10 02:09:27;;;;;;;3.85;2.02;;;;;;;0.26;61.73;101770.27;1817842;78;21040;-51
2021/03/10 02:12:00;;;;;;;4.58;2.33;;;;;;;0.25;61.77;101795.31;1832182;78;21130;-51
2021/03/10 02:14:54;;;;;;;4.12;1.87;;;;;;;0.21;61.07;101774.96;1831641;77;21131;-51
2021/03/10 02:17:23;;;;;;;3.83;2.10;;;;;;;0.18;60.44;101771.84;1832067;78;21103;-52
2021/03/10 02:20:07;;;;;;;3.45;1.85;;;;;;;0.13;60.28;101761.62;1832116;77;21056;-51
2021/03/10 02:23:17;;;;;;;2.62;1.82;;;;;;;0.09;60.79;101759.73;1832035;77;21614;-51
2021/03/10 02:25:53;;;;;;;4.62;1.90;;;;;;;0.07;61.44;101757.48;1832039;78;21212;-52
2021/03/10 02:28:20;;;;;;;3.40;1.70;;;;;;;0.05;61.64;101763.16;1832032;78;21083;-50
2021/03/10 02:30:50;;;;;;;4.45;1.80;;;;;;;0.04;61.58;101753.46;1815918;78;21088;-52
2021/03/10 02:33:21;;;;;;;4.75;1.75;;;;;;;0.01;61.36;101754.71;1832042;78;21111;-51
2021/03/10 02:35:59;;;;;;;4.25;1.90;;;;;;;-0.01;61.23;101751.61;1832062;78;21092;-52
2021/03/10 02:38:27;;;;;;;2.75;1.70;;;;;;;-0.04;61.15;101739.67;1830153;77;21608;-52
2021/03/10 02:40:55;;;;;;;3.58;1.90;;;;;;;-0.05;61.07;101743.16;1831966;78;21162;-51
2021/03/10 02:43:24;;;;;;;4.85;2.22;;;;;;;-0.06;61.26;101740.06;1832040;78;21043;-51
2021/03/10 02:45:53;;;;;;;3.17;1.50;;;;;;;-0.06;61.28;101739.16;1830228;78;21070;-51
2021/03/10 02:48:22;;;;;;;3.58;1.70;;;;;;;-0.07;61.33;101742.23;1830397;78;21047;-51
2021/03/10 02:50:50;;;;;;;4.33;1.95;;;;;;;-0.08;61.48;101731.23;1830221;78;21193;-51
2021/03/10 02:53:17;;;;;;;3.87;1.47;;;;;;;-0.09;61.14;101733.40;1830189;78;21154;-51
2021/03/10 02:55:45;;;;;;;4.58;1.80;;;;;;;-0.09;60.88;101731.17;1830353;77;21177;-51
2021/03/10 02:58:13;;;;;;;5.65;1.65;;;;;;;-0.11;60.91;101729.84;1830265;78;21059;-51
2021/03/10 03:00:41;;;;;;;9.35;2.33;;;;;;;-0.10;60.84;101735.98;1830399;78;21066;-51
2021/03/10 03:03:09;;;;;;;5.22;1.85;;;;;;;-0.12;60.83;101755.70;1830292;78;21702;-51
2021/03/10 03:05:37;;;;;;;4.67;2.10;;;;;;;-0.14;60.91;101765.32;1830323;78;21172;-50
2021/03/10 03:08:05;;;;;;;4.83;1.80;;;;;;;-0.16;61.79;101743.30;1830312;78;21154;-51
2021/03/10 03:10:39;;;;;;;5.47;2.22;;;;;;;-0.17;61.94;101734.93;1830292;77;21098;-51
2021/03/10 03:13:10;;;;;;;4.55;1.72;;;;;;;-0.16;61.30;101736.72;1830242;77;21110;-51
2021/03/10 03:15:38;;;;;;;6.03;1.60;;;;;;;-0.18;60.21;101748.97;1830141;77;21315;-51
2021/03/10 03:18:06;;;;;;;7.40;1.85;;;;;;;-0.20;60.23;101746.31;1830257;78;21149;-50
2021/03/10 03:20:34;;;;;;;4.00;1.80;;;;;;;-0.20;60.12;101742.77;1830242;78;21042;-50
2021/03/10 03:23:04;;;;;;;3.45;2.00;;;;;;;-0.21;60.02;101746.25;1830321;77;21046;-51
2021/03/10 03:25:37;;;;;;;2.90;1.75;;;;;;;-0.22;59.51;101747.11;1830315;78;21251;-50
2021/03/10 03:28:06;;;;;;;4.22;1.90;;;;;;;-0.23;59.83;101745.33;1830302;77;21331;-50
2021/03/10 03:30:35;;;;;;;6.92;1.72;;;;;;;-0.24;60.30;101739.59;1830147;78;21071;-51
2021/03/10 03:33:09;;;;;;;4.25;1.50;;;;;;;-0.24;60.24;101741.78;1830379;78;21459;-51
2021/03/10 03:35:43;;;;;;;4.37;1.92;;;;;;;-0.24;60.20;101740.91;1830234;78;21561;-50
2021/03/10 03:38:11;;;;;;;4.53;2.00;;;;;;;-0.25;59.76;101726.83;1830292;78;21082;-51
2021/03/10 03:40:39;;;;;;;6.35;2.00;;;;;;;-0.25;59.86;101732.54;1830261;77;21685;-50
2021/03/10 03:43:08;;;;;;;5.30;1.98;;;;;;;-0.27;60.10;101717.99;1830128;78;21146;-51
2021/03/10 03:45:37;;;;;;;2.70;1.70;;;;;;;-0.27;60.02;101724.58;1831947;78;21576;-51
2021/03/10 03:48:07;;;;;;;3.92;1.87;;;;;;;-0.27;59.99;101726.34;1832000;78;20870;-51
2021/03/10 03:50:34;;;;;;;5.25;2.27;;;;;;;-0.27;60.44;101707.89;1832073;78;21059;-51
2021/03/10 03:53:02;;;;;;;5.75;2.30;;;;;;;-0.28;60.00;101719.29;1831948;78;21138;-51
2021/03/10 03:55:31;;;;;;;4.30;1.98;;;;;;;-0.31;60.30;101710.86;1832072;78;20921;-51
2021/03/10 03:57:58;;;;;;;7.83;2.20;;;;;;;-0.32;60.57;101705.13;1831952;77;20993;-51
2021/03/10 04:00:26;;;;;;;6.35;1.77;;;;;;;-0.33;60.12;101715.20;1832016;78;21147;-51
2021/03/10 04:02:54;;;;;;;5.05;1.87;;;;;;;-0.33;59.68;101702.03;1831973;78;21055;-51
2021/03/10 04:05:22;;;;;;;9.03;2.05;;;;;;;-0.32;59.81;101714.36;1832068;78;21737;-51
2021/03/10 04:07:57;;;;;;;4.40;1.40;;;;;;;-0.33;60.29;101702.94;1829896;77;21091;-51
2021/03/10 04:10:28;;;;;;;6.25;2.00;;;;;;;-0.33;60.27;101709.94;1831987;78;21138;-52
2021/03/10 04:12:56;;;;;;;4.60;1.87;;;;;;;-0.34;59.81;101714.30;1831699;77;21167;-52
2021/03/10 04:15:25;;;;;;;4.92;1.80;;;;;;;-0.35;59.84;101708.56;1833232;77;21156;-52
2021/03/10 04:17:53;;;;;;;4.30;1.75;;;;;;;-0.36;59.37;101701.52;1840356;78;21354;-52
2021/03/10 04:20:22;;;;;;;3.62;2.00;;;;;;;-0.38;59.48;101707.17;1840338;78;20969;-52
2021/03/10 04:22:50;;;;;;;3.72;1.75;;;;;;;-0.38;59.63;101708.94;1840400;78;21118;-51
2021/03/10 04:25:17;;;;;;;5.53;2.17;;;;;;;-0.39;59.67;101700.12;1840257;78;21120;-52
2021/03/10 04:27:45;;;;;;;6.95;1.90;;;;;;;-0.38;58.87;101702.34;1840419;78;21127;-52
2021/03/10 04:30:14;;;;;;;4.42;1.87;;;;;;;-0.38;59.58;101699.27;1840328;78;21390;-51
2021/03/10 04:32:42;;;;;;;6.45;2.25;;;;;;;-0.38;59.82;101704.54;1840437;78;21485;-52
2021/03/10 04:35:10;;;;;;;3.83;1.95;;;;;;;-0.38;59.19;101701.03;1840409;78;21081;-52
2021/03/10 04:37:40;;;;;;;4.47;1.75;;;;;;;-0.39;59.61;101709.34;1840435;78;21120;-52
2021/03/10 04:40:09;;;;;;;4.67;1.82;;;;;;;-0.37;59.53;101715.98;1840412;78;21131;-51
2021/03/10 04:42:38;;;;;;;3.30;1.82;;;;;;;-0.36;58.94;101709.42;1840441;78;22361;-51
2021/03/10 04:45:09;;;;;;;4.37;2.00;;;;;;;-0.35;59.40;101708.56;1831002;78;21626;-51
2021/03/10 04:47:37;;;;;;;4.08;2.00;;;;;;;-0.37;58.78;101701.05;1827432;78;21082;-52
2021/03/10 04:50:07;;;;;;;5.40;2.10;;;;;;;-0.36;58.68;101709.86;1827511;78;21158;-52
2021/03/10 04:52:34;;;;;;;4.05;2.10;;;;;;;-0.36;58.90;101714.69;1827355;78;21035;-52
2021/03/10 04:55:06;;;;;;;4.87;2.25;;;;;;;-0.33;59.39;101710.84;1827491;78;21366;-52
2021/03/10 04:57:34;;;;;;;6.00;1.77;;;;;;;-0.32;59.12;101712.63;1826957;78;21490;-51
2021/03/10 05:00:03;;;;;;;5.12;1.98;;;;;;;-0.30;58.40;101710.01;1827472;78;21055;-52
2021/03/10 05:02:30;;;;;;;5.58;1.98;;;;;;;-0.27;58.61;101732.93;1827632;78;22179;-52
2021/03/10 05:04:58;;;;;;;6.67;1.98;;;;;;;-0.27;57.97;101731.17;1827454;78;21144;-51
2021/03/10 05:07:26;;;;;;;13.55;2.75;;;;;;;-0.25;57.88;101744.41;1827518;78;21695;-52
2021/03/10 05:09:53;;;;;;;7.50;2.10;;;;;;;-0.24;57.79;101719.83;1827296;78;21114;-52
2021/03/10 05:12:21;;;;;;;6.60;1.85;;;;;;;-0.20;57.36;101726.95;1827461;78;21114;-52
2021/03/10 05:14:49;;;;;;;5.50;1.77;;;;;;;-0.17;57.75;101727.02;1827333;78;21127;-52
2021/03/10 05:17:17;;;;;;;2.70;1.52;;;;;;;-0.12;57.51;101737.69;1827425;78;21097;-51
2021/03/10 05:19:45;;;;;;;5.92;1.70;;;;;;;-0.09;56.58;101734.72;1827492;78;21356;-52
2021/03/10 05:22:13;;;;;;;2.37;1.50;;;;;;;-0.06;56.47;101735.20;1827369;78;21102;-52
2021/03/10 05:24:41;;;;;;;3.90;1.80;;;;;;;-0.04;55.66;101733.48;1827483;78;21062;-52
2021/03/10 05:27:08;;;;;;;4.05;1.70;;;;;;;-0.01;55.78;101730.92;1827433;78;21106;-52
2021/03/10 05:29:36;;;;;;;3.70;1.80;;;;;;;0.05;56.27;101735.47;1827482;78;21098;-52
2021/03/10 05:32:05;;;;;;;3.83;1.85;;;;;;;0.08;56.84;101732.89;1827311;78;21662;-52
2021/03/10 05:34:33;;;;;;;2.52;1.40;;;;;;;0.10;56.45;101741.73;1827397;78;20888;-51
2021/03/10 05:37:01;;;;;;;3.98;1.70;;;;;;;0.11;55.69;101744.83;1827446;78;21051;-51
2021/03/10 05:39:29;;;;;;;5.00;1.72;;;;;;;0.12;55.46;101735.66;1827430;78;21090;-52
2021/03/10 05:41:57;;;;;;;4.72;1.60;;;;;;;0.18;55.31;101744.16;1827461;78;21098;-52
2021/03/10 05:44:25;;;;;;;3.12;1.75;;;;;;;0.22;55.12;101758.28;1833155;78;21407;-52
2021/03/10 05:46:53;;;;;;;5.35;1.40;;;;;;;0.27;54.77;101745.67;1840181;78;21084;-52
2021/03/10 05:49:22;;;;;;;4.05;1.77;;;;;;;0.30;54.28;101751.87;1840429;78;21056;-53
2021/03/10 05:51:50;;;;;;;2.87;1.40;;;;;;;0.32;54.54;101745.80;1840217;78;21528;-51
2021/03/10 05:54:22;;;;;;;4.58;1.70;;;;;;;0.35;55.42;101759.50;1840475;78;22287;-50
2021/03/10 05:56:50;;;;;;;10.98;6.10;;;;;;;0.37;55.38;101744.59;1840310;78;21182;-51
2021/03/10 05:59:17;;;;;;;35.63;14.63;;;;;;;0.39;55.16;101770.13;1840201;78;21120;-51
2021/03/10 06:01:45;;;;;;;8.58;4.17;;;;;;;0.40;54.76;101765.77;1840332;78;21037;-53
2021/03/10 06:04:13;;;;;;;6.67;1.92;;;;;;;0.41;54.78;101775.45;1840261;78;21055;-52
2021/03/10 06:06:41;;;;;;;3.15;1.85;;;;;;;0.45;54.82;101766.75;1840368;78;21044;-52
2021/03/10 06:09:18;;;;;;;8.25;2.17;;;;;;;0.48;54.88;101777.38;1840301;78;21357;-52
2021/03/10 06:12:00;;;;;;;6.28;2.12;;;;;;;0.51;55.89;101775.25;1840241;78;21064;-52
2021/03/10 06:14:28;;;;;;;6.28;1.90;;;;;;;0.53;57.00;101769.13;1840257;78;21021;-51
2021/03/10 06:17:10;;;;;;;6.75;1.90;;;;;;;0.55;56.28;101778.00;1840171;77;21151;-51
2021/03/10 06:19:47;;;;;;;4.30;2.10;;;;;;;0.59;55.98;101762.23;1839978;78;21124;-51
2021/03/10 06:22:16;;;;;;;5.75;1.75;;;;;;;0.62;55.82;101764.94;1840315;78;22215;-52
2021/03/10 06:24:44;;;;;;;4.40;1.50;;;;;;;0.65;55.65;101771.60;1840508;78;21464;-52
2021/03/10 06:27:11;;;;;;;2.45;1.47;;;;;;;0.68;54.96;101771.66;1840264;78;21191;-52
2021/03/10 06:29:39;;;;;;;3.52;1.85;;;;;;;0.73;55.23;101776.61;1784194;78;21203;-51
2021/03/10 06:32:09;;;;;;;6.40;1.80;;;;;;;0.77;55.22;101774.50;1840297;77;21156;-52
2021/03/10 06:34:44;;;;;;;4.03;1.42;;;;;;;0.80;54.28;101777.23;1840370;78;22087;-52
2021/03/10 06:37:11;;;;;;;;;;;;;;;0.82;53.56;101796.64;1842892;78;21048;-52
2021/03/10 06:39:41;;;;;;;3.12;1.32;;;;;;;0.81;53.85;101768.45;1836184;78;20238;-52
2021/03/10 06:42:13;;;;;;;4.20;1.50;;;;;;;0.80;53.54;101781.19;1840247;78;21096;-52
2021/03/10 06:44:52;;;;;;;4.87;1.47;;;;;;;0.77;53.07;101794.30;1833284;78;21468;-52
2021/03/10 06:47:19;;;;;;;7.35;1.92;;;;;;;0.76;53.15;101785.91;1827405;78;21358;-51
2021/03/10 06:49:53;;;;;;;2.65;1.45;;;;;;;0.77;51.91;101786.37;1827206;78;21110;-52
2021/03/10 06:52:21;;;;;;;4.72;1.67;;;;;;;0.78;52.28;101789.51;1827476;78;21051;-51
2021/03/10 06:55:03;;;;;;;4.78;1.70;;;;;;;0.84;52.56;101798.88;1827329;78;21610;-52
2021/03/10 06:57:35;;;;;;;5.62;1.52;;;;;;;0.90;52.69;101817.03;1827422;78;21030;-52
2021/03/10 07:00:04;;;;;;;8.15;2.17;;;;;;;0.92;52.25;101806.06;1808709;78;21161;-51
2021/03/10 07:02:32;;;;;;;6.62;2.10;;;;;;;0.94;52.79;101787.19;1835654;78;21155;-52
2021/03/10 07:05:00;;;;;;;8.33;2.05;;;;;;;0.99;53.58;101781.56;1840142;78;21498;-52
2021/03/10 07:07:30;;;;;;;4.05;1.95;;;;;;;1.04;53.93;101790.50;1840066;78;21187;-51
2021/03/10 07:09:59;;;;;;;3.42;1.90;;;;;;;1.10;53.71;101787.98;1835732;78;21131;-52
2021/03/10 07:12:29;;;;;;;3.67;2.12;;;;;;;1.16;53.96;101801.75;1840151;78;21041;-51
2021/03/10 07:15:01;;;;;;;10.48;2.47;;;;;;;1.20;54.49;101790.80;1840161;78;21131;-52
2021/03/10 07:17:29;;;;;;;6.92;2.33;;;;;;;1.20;54.60;101789.48;1839788;77;21136;-52
2021/03/10 07:19:58;;;;;;;4.50;2.00;;;;;;;1.25;54.35;101787.39;1840299;78;21108;-53
2021/03/10 07:22:44;;;;;;;7.28;2.12;;;;;;;1.31;54.09;101797.20;1810753;78;21104;-52
2021/03/10 07:25:33;;;;;;;6.70;2.20;;;;;;;1.33;53.51;101796.80;1840288;78;21485;-51
2021/03/10 07:28:14;;;;;;;5.12;2.20;;;;;;;1.33;53.56;101799.45;1840195;78;21052;-52
2021/03/10 07:30:46;;;;;;;4.37;2.00;;;;;;;1.33;52.67;101797.25;1840276;78;21482;-53
2021/03/10 07:33:22;;;;;;;3.72;1.95;;;;;;;1.30;52.74;101782.21;1840165;78;21065;-52
2021/03/10 07:36:00;;;;;;;8.15;2.05;;;;;;;1.38;52.47;101792.94;1840165;78;21113;-52
2021/03/10 07:38:38;;;;;;;6.08;2.05;;;;;;;1.42;52.18;101781.56;1840256;78;21362;-53
2021/03/10 07:41:14;;;;;;;3.42;1.92;;;;;;;1.43;51.67;101792.59;1840107;78;21217;-52
2021/03/10 07:43:44;;;;;;;4.78;1.90;;;;;;;1.45;51.09;101792.19;1837864;78;21020;-52
2021/03/10 07:46:27;;;;;;;3.90;1.87;;;;;;;1.43;50.85;101782.89;1824211;78;21473;-52
2021/03/10 07:48:57;;;;;;;4.03;1.80;;;;;;;1.45;50.90;101771.50;1824155;78;21133;-52
2021/03/10 07:51:33;;;;;;;3.62;2.10;;;;;;;1.53;50.90;101772.52;1824221;78;21192;-52
2021/03/10 07:54:05;;;;;;;4.78;2.00;;;;;;;1.61;50.40;101784.56;1824175;78;21150;-52
2021/03/10 07:56:33;;;;;;;4.40;2.00;;;;;;;1.63;49.86;101785.48;1823160;78;21071;-52
2021/03/10 07:59:17;;;;;;;5.35;2.30;;;;;;;1.61;49.90;101777.95;1824262;78;21483;-52
2021/03/10 08:01:48;;;;;;;5.45;1.80;;;;;;;1.57;49.64;101787.57;1804234;78;21087;-52
2021/03/10 08:04:17;;;;;;;4.33;1.85;;;;;;;1.51;49.59;101786.14;1824100;78;21352;-52
2021/03/10 08:06:52;;;;;;;4.05;2.10;;;;;;;1.51;49.56;101779.53;1824072;78;21170;-52
2021/03/10 08:09:24;;;;;;;6.00;2.10;;;;;;;1.49;49.84;101777.30;1824091;78;21154;-52
2021/03/10 08:12:10;;;;;;;3.47;2.17;;;;;;;1.48;50.02;101774.19;1824182;78;21256;-52
2021/03/10 08:14:45;;;;;;;3.95;1.80;;;;;;;1.48;50.10;101782.13;1824272;78;21484;-53
2021/03/10 08:17:23;;;;;;;4.45;1.70;;;;;;;1.43;49.87;101782.89;1826722;78;22102;-54
2021/03/10 08:20:00;;;;;;;3.77;2.00;;;;;;;1.39;50.04;101778.42;1830244;78;21059;-52
2021/03/10 08:22:29;;;;;;;5.95;1.80;;;;;;;1.40;49.88;101782.84;1830206;78;21090;-53
2021/03/10 08:24:59;;;;;;;3.67;1.80;;;;;;;1.40;49.33;101781.97;1830262;78;21578;-52
2021/03/10 08:27:41;;;;;;;4.83;2.10;;;;;;;1.37;49.85;101791.16;1830326;77;21554;-52
2021/03/10 08:30:14;;;;;;;3.90;2.07;;;;;;;1.33;50.28;101789.33;1830493;78;21376;-52
2021/03/10 08:32:42;;;;;;;5.25;1.92;;;;;;;1.29;49.63;101767.22;1830119;78;21513;-52
2021/03/10 08:35:14;;;;;;;7.58;2.12;;;;;;;1.29;50.08;101782.63;1830217;78;21142;-52
2021/03/10 08:37:43;;;;;;;5.72;2.45;;;;;;;1.30;49.91;101786.18;1830238;78;20951;-52
2021/03/10 08:40:14;;;;;;;4.40;2.08;;;;;;;1.31;50.01;101769.88;1821920;77;21045;-52
2021/03/10 08:42:46;;;;;;;5.28;2.30;;;;;;;1.35;50.44;101762.05;1816197;78;21372;-53
2021/03/10 08:45:33;;;;;;;5.12;2.00;;;;;;;1.41;50.57;101759.96;1810483;78;21067;-52
2021/03/10 08:48:07;;;;;;;6.28;2.40;;;;;;;1.49;50.13;101758.79;1799396;78;21044;-52
2021/03/10 08:50:42;;;;;;;6.37;3.02;;;;;;;1.55;50.03;101768.15;1799324;78;21567;-53
2021/03/10 08:53:12;;;;;;;9.33;3.47;;;;;;;1.55;50.04;101772.11;1799414;79;22274;-51
2021/03/10 08:55:42;;;;;;;6.92;2.55;;;;;;;1.57;50.67;101761.14;1799419;78;21521;-51
2021/03/10 08:58:14;;;;;;;7.50;3.20;;;;;;;1.60;51.36;101777.05;1799108;79;21123;-52
2021/03/10 09:00:43;;;;;;;8.45;3.37;;;;;;;1.62;51.33;101760.78;1799213;79;21503;-53
2021/03/10 09:03:18;;;;;;;11.80;3.40;;;;;;;1.67;51.00;101759.14;1799029;79;21063;-51
2021/03/10 09:05:50;;;;;;;5.10;3.10;;;;;;;1.70;50.89;101767.12;1799225;79;21099;-51
2021/03/10 09:08:23;;;;;;;8.90;3.30;;;;;;;1.69;50.39;101768.40;1799324;79;22227;-51
2021/03/10 09:11:01;;;;;;;8.45;2.92;;;;;;;1.68;50.03;101765.30;1799264;79;21055;-50
2021/03/10 09:13:48;;;;;;;6.77;3.03;;;;;;;1.74;49.76;101757.91;1909250;74;22696;-52
2021/03/10 09:16:17;;;;;;;11.33;3.37;;;;;;;1.70;49.04;101765.80;1848381;77;20985;-52
2021/03/10 09:19:01;;;;;;;9.25;3.25;;;;;;;1.74;49.66;101764.53;1847506;77;21334;-52
2021/03/10 09:21:41;;;;;;;8.30;3.52;;;;;;;1.79;50.01;101776.97;1848624;77;21025;-51
2021/03/10 09:24:10;;;;;;;6.10;3.17;;;;;;;1.75;49.27;101764.98;1848692;77;21040;-52
2021/03/10 09:26:41;;;;;;;10.18;3.75;;;;;;;1.70;50.25;101763.56;1848861;77;20989;-51
2021/03/10 09:29:10;;;;;;;9.03;3.83;;;;;;;1.73;49.66;101768.03;1849169;77;21009;-51
2021/03/10 09:31:40;;;;;;;7.12;3.22;;;;;;;1.71;49.36;101766.25;1848147;77;21437;-51
2021/03/10 09:34:09;;;;;;;8.28;4.00;;;;;;;1.64;49.42;101751.13;1848308;77;21174;-51
2021/03/10 09:36:39;;;;;;;10.32;3.30;;;;;;;1.64;49.91;101753.77;1847800;77;20930;-53
2021/03/10 09:39:08;;;;;;;8.40;3.92;;;;;;;1.68;49.84;101763.56;1848199;76;20933;-50
2021/03/10 09:41:47;;;;;;;9.27;3.67;;;;;;;1.66;49.52;101760.00;1866854;76;22443;-52
2021/03/10 09:44:17;;;;;;;9.00;3.65;;;;;;;1.50;49.73;101761.89;1814910;78;20988;-52
2021/03/10 09:46:47;;;;;;;8.60;3.95;;;;;;;1.43;49.98;101751.63;1827465;78;21354;-51
2021/03/10 09:49:17;;;;;;;9.15;3.65;;;;;;;1.46;50.35;101753.45;1827398;78;21571;-52
2021/03/10 09:51:47;;;;;;;9.73;4.37;;;;;;;1.53;50.84;101742.12;1827882;78;21047;-51
2021/03/10 09:54:21;;;;;;;8.68;4.72;;;;;;;1.60;50.91;101740.48;1826686;78;21128;-51
2021/03/10 09:56:53;;;;;;;11.65;4.65;;;;;;;1.70;50.93;101761.83;1827916;78;21007;-51
2021/03/10 09:59:35;;;;;;;10.63;4.72;;;;;;;1.76;50.62;101758.38;1809863;78;21341;-54
2021/03/10 10:02:04;;;;;;;9.25;4.47;;;;;;;1.80;50.66;101746.11;1827513;78;20987;-51
2021/03/10 10:04:34;;;;;;;9.03;4.37;;;;;;;1.81;50.49;101732.93;1816136;78;21167;-52
2021/03/10 10:07:06;;;;;;;9.03;4.22;;;;;;;1.85;50.64;101740.05;1807748;79;21567;-52
2021/03/10 10:09:44;;;;;;;10.63;4.30;;;;;;;1.91;50.16;101749.84;1786829;78;21167;-52
2021/03/10 10:12:15;;;;;;;12.40;4.72;;;;;;;1.92;50.21;101735.76;1809969;78;21377;-51
2021/03/10 10:14:44;;;;;;;11.25;4.50;;;;;;;1.95;50.86;101738.45;1838272;78;21036;-52
2021/03/10 10:17:14;;;;;;;7.83;4.72;;;;;;;1.98;50.52;101742.46;1840412;78;21116;-52
2021/03/10 10:19:42;;;;;;;7.70;3.90;;;;;;;1.95;50.69;101732.25;1840904;78;21109;-52
2021/03/10 10:22:10;;;;;;;11.63;4.65;;;;;;;1.93;50.64;101742.83;1840977;78;21520;-52
2021/03/10 10:24:38;;;;;;;8.80;4.12;;;;;;;1.91;50.84;101747.20;1841071;78;21676;-53
2021/03/10 10:27:08;;;;;;;11.73;4.00;;;;;;;1.85;51.33;101735.17;1840885;78;20950;-52
2021/03/10 10:29:37;;;;;;;8.15;4.12;;;;;;;1.73;51.96;101737.63;1840996;78;20938;-53
2021/03/10 10:32:06;;;;;;;9.78;4.40;;;;;;;1.68;52.13;101721.26;1840988;78;21033;-53
2021/03/10 10:34:34;;;;;;;9.15;3.87;;;;;;;1.71;52.19;101726.59;1841136;78;21452;-52
2021/03/10 10:37:03;;;;;;;7.47;4.03;;;;;;;1.75;52.09;101732.80;1840935;78;21358;-52
2021/03/10 10:39:35;;;;;;;7.83;3.98;;;;;;;1.78;52.08;101720.98;1820110;76;21164;-52
2021/03/10 10:42:03;;;;;;;6.42;3.40;;;;;;;1.80;51.74;101729.83;1828261;77;21108;-52
2021/03/10 10:44:31;;;;;;;13.10;4.00;;;;;;;1.81;51.63;101716.16;1832061;78;21123;-52
2021/03/10 10:47:00;;;;;;;9.00;3.80;;;;;;;1.87;51.80;101718.89;1814440;77;21100;-60
2021/03/10 10:49:33;;;;;;;6.60;3.27;;;;;;;1.91;51.26;101719.43;1817016;78;21211;-59
2021/03/10 10:52:00;;;;;;;8.35;3.62;;;;;;;1.89;50.48;101709.68;1811922;78;21547;-60
2021/03/10 10:54:30;;;;;;;6.67;3.15;;;;;;;1.88;50.36;101715.42;1782376;79;21117;-59
2021/03/10 10:56:58;;;;;;;11.70;4.67;;;;;;;1.89;49.40;101706.62;1768399;80;21113;-61
2021/03/10 10:59:27;;;;;;;8.48;2.85;;;;;;;1.88;49.47;101727.32;1757433;80;21073;-59
2021/03/10 11:01:56;;;;;;;6.25;3.10;;;;;;;1.88;49.48;101719.80;1729193;80;22825;-60
2021/03/10 11:04:24;;;;;;;5.58;3.10;;;;;;;1.80;49.84;101715.28;1755863;80;21213;-59
2021/03/10 11:06:53;;;;;;;6.15;3.22;;;;;;;1.75;49.25;101709.45;1720703;82;21180;-59
2021/03/10 11:09:22;;;;;;;5.83;3.27;;;;;;;1.73;49.72;101699.28;1771347;80;21573;-59
2021/03/10 11:11:52;;;;;;;7.85;3.80;;;;;;;1.74;50.08;101699.74;1777919;80;21200;-59
2021/03/10 11:14:21;;;;;;;5.50;3.00;;;;;;;1.74;50.98;101695.77;1734395;80;21338;-60
2021/03/10 11:16:50;;;;;;;6.78;3.40;;;;;;;1.74;50.60;101702.39;1779011;80;21156;-60
2021/03/10 11:19:20;;;;;;;6.20;3.62;;;;;;;1.70;50.38;101697.05;1761840;80;21144;-59
2021/03/10 11:21:50;;;;;;;6.08;3.27;;;;;;;1.72;49.96;101677.23;1750470;80;21172;-60
2021/03/10 11:24:19;;;;;;;6.87;3.62;;;;;;;1.67;51.29;101677.59;1744251;82;21573;-60
2021/03/10 11:26:48;;;;;;;8.80;3.90;;;;;;;1.62;50.69;101684.56;1772404;80;23126;-60
2021/03/10 11:29:17;;;;;;;6.97;3.58;;;;;;;1.62;50.68;101677.95;1772536;80;21168;-59
2021/03/10 11:31:45;;;;;;;9.50;3.83;;;;;;;1.63;50.73;101666.06;1769257;80;21476;-58
2021/03/10 11:34:14;;;;;;;10.72;3.72;;;;;;;1.63;50.44;101660.77;1778642;78;21109;-59
2021/03/10 11:36:42;;;;;;;6.80;3.58;;;;;;;1.62;50.89;101656.35;1747924;80;21148;-59
2021/03/10 11:39:13;;;;;;;7.60;3.40;;;;;;;1.60;50.95;101655.44;1776133;80;21362;-59
2021/03/10 11:41:41;;;;;;;8.80;3.67;;;;;;;1.60;51.20;101651.47;1755050;80;21152;-59
2021/03/10 11:44:09;;;;;;;8.23;3.60;;;;;;;1.62;51.38;101666.92;1767842;80;21172;-59
2021/03/10 11:46:37;;;;;;;9.73;4.10;;;;;;;1.62;50.93;101652.39;1775519;80;21056;-59